createdAt,value
2017-11-20T00:01:52.889Z,4.90
2017-11-20T00:04:21.034Z,4.90
2017-11-20T00:06:49.204Z,4.80
2017-11-20T00:09:17.422Z,4.70
2017-11-20T00:11:45.661Z,4.70
2017-11-20T00:14:13.846Z,4.70
2017-11-20T00:16:43.938Z,4.60
2017-11-20T00:19:12.068Z,4.50
2017-11-20T00:21:41.039Z,4.50
2017-11-20T00:24:14.311Z,4.50
2017-11-20T00:26:42.425Z,4.50
2017-11-20T00:29:10.589Z,4.50
2017-11-20T00:31:38.923Z,4.50
2017-11-20T00:34:17.860Z,4.50
2017-11-20T00:36:46.022Z,4.50
2017-11-20T00:39:14.180Z,4.50
2017-11-20T00:41:42.331Z,4.60
2017-11-20T00:44:11.228Z,4.70
2017-11-20T00:46:40.333Z,4.80
2017-11-20T00:49:08.484Z,4.80
2017-11-20T00:51:36.665Z,4.90
2017-11-20T00:54:04.811Z,4.90
2017-11-20T00:56:40.039Z,5.00
2017-11-20T00:59:08.954Z,4.90
2017-11-20T01:01:37.078Z,4.90
2017-11-20T01:04:05.221Z,4.80
2017-11-20T01:06:33.344Z,4.80
2017-11-20T01:09:07.366Z,4.90
2017-11-20T01:11:39.517Z,5.00
2017-11-20T01:14:07.667Z,5.00
2017-11-20T01:16:36.778Z,5.00
2017-11-20T01:19:11.597Z,5.00
2017-11-20T01:21:39.756Z,5.00
2017-11-20T01:24:08.047Z,5.00
2017-11-20T01:26:38.378Z,5.00
2017-11-20T01:29:07.655Z,5.00
2017-11-20T01:31:38.766Z,5.00
2017-11-20T01:34:06.917Z,5.00
2017-11-20T01:36:35.363Z,4.80
2017-11-20T01:39:07.173Z,4.50
2017-11-20T01:41:35.361Z,4.40
2017-11-20T01:44:07.408Z,4.30
2017-11-20T01:46:35.715Z,4.40
2017-11-20T01:49:03.865Z,4.30
2017-11-20T01:51:32.949Z,4.30
2017-11-20T01:54:02.173Z,4.40
2017-11-20T01:56:33.587Z,4.50
2017-11-20T01:59:01.979Z,4.50
2017-11-20T02:01:33.581Z,4.60
2017-11-20T02:04:01.806Z,4.60
2017-11-20T02:06:30.920Z,4.60
2017-11-20T02:08:59.851Z,4.70
2017-11-20T02:11:28.202Z,4.70
2017-11-20T02:13:56.360Z,4.70
2017-11-20T02:16:25.566Z,4.70
2017-11-20T02:18:54.689Z,4.50
2017-11-20T02:21:23.152Z,4.50
2017-11-20T02:24:01.980Z,4.30
2017-11-20T02:26:30.117Z,4.30
2017-11-20T02:28:58.278Z,4.20
2017-11-20T02:31:26.417Z,4.10
2017-11-20T02:33:55.108Z,4.10
2017-11-20T02:36:24.281Z,4.10
2017-11-20T02:38:52.427Z,4.00
2017-11-20T02:41:20.578Z,4.00
2017-11-20T02:43:49.883Z,3.90
2017-11-20T02:46:18.043Z,3.90
2017-11-20T02:48:46.521Z,3.90
2017-11-20T02:51:14.709Z,3.90
2017-11-20T02:53:49.763Z,4.00
2017-11-20T02:56:18.028Z,4.10
2017-11-20T02:58:46.163Z,4.20
2017-11-20T03:01:15.352Z,4.30
2017-11-20T03:03:45.438Z,4.40
2017-11-20T03:06:25.355Z,4.40
2017-11-20T03:08:53.645Z,4.30
2017-11-20T03:11:21.883Z,4.20
2017-11-20T03:13:50.053Z,4.10
2017-11-20T03:16:18.476Z,4.10
2017-11-20T03:18:46.827Z,4.20
2017-11-20T03:21:15.929Z,4.20
2017-11-20T03:23:44.917Z,4.20
2017-11-20T03:26:13.360Z,4.20
2017-11-20T03:28:42.587Z,4.20
2017-11-20T03:31:10.764Z,4.20
2017-11-20T03:33:38.895Z,4.10
2017-11-20T03:36:07.830Z,3.90
2017-11-20T03:38:36.317Z,3.90
2017-11-20T03:41:04.454Z,3.90
2017-11-20T03:43:32.668Z,3.90
2017-11-20T03:46:01.008Z,3.90
2017-11-20T03:48:29.131Z,4.10
2017-11-20T03:50:57.247Z,4.30
2017-11-20T03:53:26.035Z,4.30
2017-11-20T03:55:54.159Z,4.40
2017-11-20T03:58:22.550Z,4.50
2017-11-20T04:00:50.692Z,4.40
2017-11-20T04:03:18.823Z,4.30
2017-11-20T04:05:47.003Z,4.20
2017-11-20T04:08:15.183Z,4.00
2017-11-20T04:10:44.399Z,3.90
2017-11-20T04:13:12.622Z,3.80
2017-11-20T04:15:40.877Z,3.70
2017-11-20T04:18:09.041Z,3.70
2017-11-20T04:20:37.398Z,3.60
2017-11-20T04:23:05.720Z,3.60
2017-11-20T04:25:34.884Z,3.60
2017-11-20T04:28:03.248Z,3.60
2017-11-20T04:30:31.420Z,3.60
2017-11-20T04:33:01.573Z,3.60
2017-11-20T04:35:30.059Z,3.60
2017-11-20T04:37:58.254Z,3.60
2017-11-20T04:40:26.451Z,3.60
2017-11-20T04:42:54.615Z,3.60
2017-11-20T04:45:22.818Z,3.60
2017-11-20T04:47:51.996Z,3.60
2017-11-20T05:47:11.644Z,4.00
2017-11-20T05:49:40.875Z,4.00
2017-11-20T05:52:09.092Z,4.00
2017-11-20T05:54:37.202Z,4.00
2017-11-20T05:57:08.583Z,3.90
2017-11-20T05:59:37.082Z,3.80
2017-11-20T06:02:05.246Z,3.80
2017-11-20T06:04:33.376Z,3.80
2017-11-20T06:07:02.471Z,3.90
2017-11-20T06:09:30.842Z,4.00
2017-11-20T06:11:58.974Z,4.00
2017-11-20T06:14:27.176Z,4.10
2017-11-20T06:16:55.480Z,4.10
2017-11-20T06:19:24.430Z,4.20
2017-11-20T06:21:52.613Z,4.20
2017-11-20T06:24:20.963Z,4.20
2017-11-20T06:26:50.055Z,4.20
2017-11-20T06:29:18.218Z,4.20
2017-11-20T06:31:46.386Z,4.30
2017-11-20T06:34:18.185Z,4.30
2017-11-20T06:36:48.338Z,4.40
2017-11-20T06:39:17.383Z,4.40
2017-11-20T06:44:55.995Z,4.40
2017-11-20T06:47:24.190Z,4.30
2017-11-20T06:49:52.451Z,4.30
2017-11-20T06:52:26.130Z,4.30
2017-11-20T06:54:54.303Z,4.30
2017-11-20T06:57:23.408Z,4.30
2017-11-20T06:59:51.579Z,4.30
2017-11-20T07:02:24.025Z,4.30
2017-11-20T07:08:02.335Z,4.30
2017-11-20T07:10:31.296Z,4.40
2017-11-20T07:12:59.784Z,4.30
2017-11-20T07:15:28.098Z,4.30
2017-11-20T07:17:56.335Z,4.30
2017-11-20T07:20:26.840Z,4.40
2017-11-20T07:22:57.584Z,4.40
2017-11-20T07:25:37.705Z,4.40
2017-11-20T07:28:08.255Z,4.40
2017-11-20T07:30:48.157Z,4.40
2017-11-20T07:33:19.988Z,4.40
2017-11-20T07:36:00.189Z,4.40
2017-11-20T07:38:40.171Z,4.40
2017-11-20T07:41:08.439Z,4.40
2017-11-20T07:43:37.570Z,4.50
2017-11-20T07:46:05.800Z,4.60
2017-11-20T07:48:34.283Z,4.60
2017-11-20T07:51:17.080Z,4.70
2017-11-20T07:53:45.534Z,4.70
2017-11-20T07:56:13.788Z,4.80
2017-11-20T07:58:42.133Z,4.80
2017-11-20T08:01:12.309Z,4.80
2017-11-20T08:03:44.533Z,4.80
2017-11-20T08:06:15.654Z,4.90
2017-11-20T08:08:43.956Z,5.00
2017-11-20T08:11:13.055Z,5.00
2017-11-20T08:13:46.902Z,5.00
2017-11-20T08:16:19.905Z,5.10
2017-11-20T08:18:48.108Z,5.10
2017-11-20T08:27:06.032Z,5.20
2017-11-20T08:29:38.086Z,5.30
2017-11-20T08:32:06.251Z,5.20
2017-11-20T08:34:38.315Z,5.20
2017-11-20T08:40:16.063Z,5.20
2017-11-20T08:42:45.355Z,5.20
2017-11-20T08:45:13.547Z,5.30
2017-11-20T08:47:41.815Z,5.30
2017-11-20T08:50:10.924Z,5.30
2017-11-20T08:52:39.971Z,5.30
2017-11-20T08:55:08.737Z,5.30
2017-11-20T08:57:38.892Z,5.30
2017-11-20T09:02:44.392Z,5.30
2017-11-20T09:05:14.477Z,5.30
2017-11-20T09:07:42.691Z,5.30
2017-11-20T09:10:11.993Z,5.30
2017-11-20T09:12:45.293Z,5.30
2017-11-20T09:17:49.427Z,5.40
2017-11-20T09:20:18.263Z,5.40
2017-11-20T09:22:47.343Z,5.50
2017-11-20T09:25:15.559Z,5.50
2017-11-20T09:27:44.582Z,5.40
2017-11-20T09:30:12.871Z,5.50
2017-11-20T09:32:42.927Z,5.50
2017-11-20T09:35:11.116Z,5.50
2017-11-20T09:37:49.760Z,5.60
2017-11-20T09:40:18.055Z,5.60
2017-11-20T09:45:59.675Z,5.60
2017-11-20T09:48:28.527Z,5.70
2017-11-20T09:50:57.631Z,5.70
2017-11-20T09:53:26.769Z,5.70
2017-11-20T09:55:54.997Z,5.70
2017-11-20T09:58:23.281Z,5.70
2017-11-20T10:00:51.440Z,5.70
2017-11-20T10:03:20.503Z,5.70
2017-11-20T10:05:48.794Z,5.70
2017-11-20T10:08:17.867Z,5.80
2017-11-20T10:10:48.088Z,5.80
2017-11-20T10:13:17.297Z,5.80
2017-11-20T10:15:45.557Z,5.90
2017-11-20T10:18:13.698Z,5.90
2017-11-20T10:20:42.051Z,6.00
2017-11-20T10:23:10.299Z,6.10
2017-11-20T10:25:40.448Z,6.10
2017-11-20T10:28:08.615Z,6.10
2017-11-20T10:30:36.788Z,6.20
2017-11-20T10:33:05.076Z,6.10
2017-11-20T10:35:33.343Z,6.20
2017-11-20T10:38:01.735Z,6.20
2017-11-20T10:40:29.952Z,6.20
2017-11-20T10:42:58.146Z,6.20
2017-11-20T10:45:44.426Z,6.20
2017-11-20T10:48:12.675Z,6.20
2017-11-20T10:50:40.904Z,6.20
2017-11-20T10:53:09.172Z,6.20
2017-11-20T10:55:42.424Z,6.20
2017-11-20T10:58:10.684Z,6.20
2017-11-20T11:00:44.218Z,6.20
2017-11-20T11:03:12.349Z,6.20
2017-11-20T11:05:40.710Z,6.20
2017-11-20T11:08:10.878Z,6.20
2017-11-20T11:10:39.148Z,6.20
2017-11-20T11:13:07.541Z,6.10
2017-11-20T11:15:35.772Z,6.10
2017-11-20T11:18:03.965Z,6.00
2017-11-20T11:20:37.272Z,6.00
2017-11-20T11:23:05.405Z,6.00
2017-11-20T11:25:36.888Z,6.10
2017-11-20T11:28:05.595Z,6.10
2017-11-20T11:30:33.867Z,6.10
2017-11-20T11:33:03.265Z,6.10
2017-11-20T11:35:32.099Z,6.10
2017-11-20T11:38:00.261Z,6.10
2017-11-20T11:40:28.839Z,6.10
2017-11-20T11:42:57.261Z,6.10
2017-11-20T11:45:35.045Z,6.10
2017-11-20T11:48:04.026Z,6.00
2017-11-20T11:50:32.958Z,5.90
2017-11-20T11:53:01.222Z,5.90
2017-11-20T11:58:39.056Z,5.90
2017-11-20T12:01:24.032Z,6.00
2017-11-20T12:03:57.898Z,6.10
2017-11-20T12:06:27.077Z,6.10
2017-11-20T12:08:56.257Z,6.10
2017-11-20T12:11:24.538Z,6.10
2017-11-20T12:17:03.309Z,6.20
2017-11-20T12:19:32.316Z,6.20
2017-11-20T12:25:11.348Z,6.20
2017-11-20T12:27:39.625Z,6.20
2017-11-20T12:30:07.839Z,6.20
2017-11-20T12:32:40.099Z,6.20
2017-11-20T12:35:24.125Z,6.20
2017-11-20T12:41:17.557Z,6.10
2017-11-20T12:43:53.423Z,6.10
2017-11-20T12:46:21.692Z,6.10
2017-11-20T12:48:50.548Z,6.10
2017-11-20T12:51:18.783Z,6.00
2017-11-20T12:53:54.908Z,5.90
2017-11-20T12:56:23.136Z,5.90
2017-11-20T12:58:51.737Z,5.90
2017-11-20T13:01:23.665Z,5.90
2017-11-20T13:03:52.770Z,5.90
2017-11-20T13:06:20.969Z,5.90
2017-11-20T13:08:49.072Z,6.00
2017-11-20T13:11:40.616Z,6.00
2017-11-20T13:14:08.777Z,6.00
2017-11-20T13:16:37.048Z,6.00
2017-11-20T13:19:08.110Z,6.10
2017-11-20T13:21:36.300Z,6.10
2017-11-20T13:24:05.121Z,6.10
2017-11-20T13:26:33.375Z,6.10
2017-11-20T13:29:07.975Z,6.10
2017-11-20T13:31:36.619Z,6.10
2017-11-20T13:34:04.813Z,6.10
2017-11-20T13:36:33.042Z,6.10
2017-11-20T13:39:05.581Z,6.10
2017-11-20T13:41:34.047Z,6.10
2017-11-20T13:44:02.228Z,6.00
2017-11-20T13:46:30.647Z,6.00
2017-11-20T13:48:58.821Z,6.00
2017-11-20T13:51:27.051Z,5.90
2017-11-20T13:53:58.188Z,5.80
2017-11-20T13:56:26.600Z,5.80
2017-11-20T13:58:54.823Z,5.80
2017-11-20T14:01:23.055Z,5.80
2017-11-20T14:07:25.361Z,5.70
2017-11-20T14:09:54.578Z,5.70
2017-11-20T14:15:35.652Z,5.70
2017-11-20T14:18:03.832Z,5.60
2017-11-20T14:20:36.804Z,5.60
2017-11-20T14:23:05.727Z,5.60
2017-11-20T14:25:34.826Z,5.50
2017-11-20T14:28:24.701Z,5.60
2017-11-20T14:30:59.709Z,5.50
2017-11-20T14:33:29.033Z,5.50
2017-11-20T14:36:00.440Z,5.50
2017-11-20T14:38:29.081Z,5.50
2017-11-20T14:40:57.289Z,5.50
2017-11-20T14:43:25.521Z,5.50
2017-11-20T14:45:54.235Z,5.50
2017-11-20T14:48:23.456Z,5.50
2017-11-20T14:50:55.760Z,5.50
2017-11-20T14:53:40.742Z,5.50
2017-11-20T14:56:09.800Z,5.50
2017-11-20T15:01:52.339Z,5.40
2017-11-20T15:04:21.031Z,5.40
2017-11-20T15:06:49.209Z,5.40
2017-11-20T15:09:17.614Z,5.40
2017-11-20T15:11:49.512Z,5.30
2017-11-20T15:14:17.768Z,5.40
2017-11-20T15:16:45.907Z,5.30
2017-11-20T15:19:14.159Z,5.30
2017-11-20T15:21:42.486Z,5.30
2017-11-20T15:24:13.969Z,5.30
2017-11-20T15:26:42.257Z,5.30
2017-11-20T15:29:10.423Z,5.30
2017-11-20T15:31:39.262Z,5.30
2017-11-20T15:34:08.429Z,5.30
2017-11-20T15:36:37.426Z,5.40
2017-11-20T15:39:05.649Z,5.40
2017-11-20T15:41:37.316Z,5.30
2017-11-20T15:44:12.535Z,5.30
2017-11-20T15:46:40.707Z,5.30
2017-11-20T15:49:08.955Z,5.30
2017-11-20T15:51:38.072Z,5.30
2017-11-20T15:54:06.954Z,5.30
2017-11-20T15:56:35.188Z,5.30
2017-11-20T15:59:03.403Z,5.40
2017-11-20T16:01:32.496Z,5.40
2017-11-20T16:04:03.192Z,5.30
2017-11-20T16:06:32.678Z,5.30
2017-11-20T16:09:01.828Z,5.30
2017-11-20T16:11:35.689Z,5.30
2017-11-20T16:14:04.896Z,5.30
2017-11-20T16:16:34.825Z,5.30
2017-11-20T16:19:03.129Z,5.30
2017-11-20T16:21:31.349Z,5.30
2017-11-20T16:24:03.355Z,5.30
2017-11-20T16:26:32.386Z,5.30
2017-11-20T16:29:07.292Z,5.30
2017-11-20T16:31:48.459Z,5.30
2017-11-20T16:37:04.206Z,5.30
2017-11-20T16:39:36.878Z,5.30
2017-11-20T16:42:05.228Z,5.30
2017-11-20T16:44:33.511Z,5.30
2017-11-20T16:47:01.765Z,5.30
2017-11-20T16:49:29.979Z,5.30
2017-11-20T16:51:58.229Z,5.20
2017-11-20T16:54:31.789Z,5.20
2017-11-20T16:57:11.784Z,5.20
2017-11-20T16:59:40.016Z,5.20
2017-11-20T17:02:32.577Z,5.20
2017-11-20T17:05:01.716Z,5.10
2017-11-20T17:07:30.036Z,5.10
2017-11-20T17:09:58.769Z,5.10
2017-11-20T17:12:27.205Z,5.00
2017-11-20T17:18:05.175Z,5.00
2017-11-20T17:20:33.534Z,5.00
2017-11-20T17:23:02.642Z,4.90
2017-11-20T17:25:36.046Z,4.90
2017-11-20T17:31:02.378Z,4.90
2017-11-20T17:33:30.580Z,4.90
2017-11-20T17:35:58.815Z,4.90
2017-11-20T17:38:27.145Z,4.90
2017-11-20T17:40:55.313Z,4.90
2017-11-20T17:43:23.553Z,4.90
2017-11-20T17:45:52.942Z,4.90
2017-11-20T17:48:24.933Z,4.90
2017-11-20T17:50:54.272Z,4.80
2017-11-20T17:53:22.409Z,4.70
2017-11-20T17:55:51.401Z,4.70
2017-11-20T17:58:19.646Z,4.60
2017-11-20T18:00:47.819Z,4.60
2017-11-20T18:03:16.944Z,4.60
2017-11-20T18:05:45.195Z,4.60
2017-11-20T18:08:13.576Z,4.60
2017-11-20T18:10:47.208Z,4.60
2017-11-20T18:15:58.422Z,4.60
2017-11-20T18:18:28.905Z,4.70
2017-11-20T18:20:57.175Z,4.70
2017-11-20T18:23:27.520Z,4.80
2017-11-20T18:25:56.288Z,4.90
2017-11-20T18:28:34.620Z,4.90
2017-11-20T18:31:02.791Z,4.90
2017-11-20T18:33:31.113Z,4.80
2017-11-20T18:35:59.360Z,4.90
2017-11-20T18:38:31.289Z,4.90
2017-11-20T18:40:59.477Z,4.90
2017-11-20T18:43:27.688Z,4.90
2017-11-20T18:46:16.463Z,5.00
2017-11-20T18:48:46.982Z,5.00
2017-11-20T18:51:16.147Z,5.00
2017-11-20T18:53:44.321Z,5.00
2017-11-20T18:56:15.132Z,5.00
2017-11-20T18:58:43.994Z,4.90
2017-11-20T19:01:23.788Z,4.90
2017-11-20T19:04:04.717Z,5.00
2017-11-20T19:06:54.965Z,5.00
2017-11-20T19:09:23.116Z,4.90
2017-11-20T19:15:01.634Z,4.90
2017-11-20T19:17:29.873Z,4.90
2017-11-20T19:20:12.091Z,4.90
2017-11-20T19:22:40.386Z,4.90
2017-11-20T19:25:08.686Z,4.90
2017-11-20T19:30:38.555Z,4.90
2017-11-20T19:33:06.906Z,4.90
2017-11-20T19:35:35.511Z,4.80
2017-11-20T19:38:03.710Z,4.90
2017-11-20T19:40:31.916Z,4.90
2017-11-20T19:43:00.108Z,4.90
2017-11-20T19:45:28.304Z,4.90
2017-11-20T19:47:56.586Z,4.90
2017-11-20T19:50:26.721Z,4.90
2017-11-20T19:52:54.826Z,4.90
2017-11-20T19:55:23.168Z,4.90
2017-11-20T19:57:53.278Z,4.90
2017-11-20T20:00:21.538Z,4.90
2017-11-20T20:02:50.080Z,4.90
2017-11-20T20:05:18.262Z,4.80
2017-11-20T20:07:46.479Z,4.80
2017-11-20T20:10:14.656Z,4.80
2017-11-20T20:12:44.090Z,4.80
2017-11-20T20:15:31.794Z,4.80
2017-11-20T20:18:01.393Z,4.80
2017-11-20T20:20:29.656Z,4.80
2017-11-20T20:23:02.479Z,4.80
2017-11-20T20:25:30.908Z,4.80
2017-11-20T20:27:59.231Z,4.80
2017-11-20T20:30:29.303Z,4.80
2017-11-20T20:32:57.491Z,4.80
2017-11-20T20:35:25.911Z,4.70
2017-11-20T20:37:55.091Z,4.70
2017-11-20T20:40:23.986Z,4.70
2017-11-20T20:42:53.022Z,4.70
2017-11-20T20:45:21.227Z,4.70
2017-11-20T20:47:49.402Z,4.70
2017-11-20T20:50:19.251Z,4.70
2017-11-20T20:52:47.408Z,4.70
2017-11-20T20:55:15.926Z,4.70
2017-11-20T20:58:08.001Z,4.70
2017-11-20T21:00:37.027Z,4.80
2017-11-20T21:03:05.354Z,4.70
2017-11-20T21:05:33.914Z,4.70
2017-11-20T21:08:05.620Z,4.70
2017-11-20T21:10:39.354Z,4.70
2017-11-20T21:13:08.228Z,4.70
2017-11-20T21:18:54.869Z,4.70
2017-11-20T21:21:23.507Z,4.70
2017-11-20T21:23:51.777Z,4.70
2017-11-20T21:26:20.052Z,4.70
2017-11-20T21:28:48.926Z,4.70
2017-11-20T21:31:17.179Z,4.70
2017-11-20T21:33:45.517Z,4.70
2017-11-20T21:36:13.646Z,4.70
2017-11-20T21:42:15.461Z,4.70
2017-11-20T22:00:56.216Z,4.70
2017-11-20T22:03:26.652Z,4.70
2017-11-20T22:06:15.462Z,4.70
2017-11-20T22:11:56.505Z,4.70
2017-11-20T22:14:26.013Z,4.70
2017-11-20T22:16:58.345Z,4.70
2017-11-20T22:19:27.952Z,4.70
2017-11-20T22:21:56.246Z,4.70
2017-11-20T22:24:28.213Z,4.70
2017-11-20T22:26:59.633Z,4.60
2017-11-20T22:29:37.374Z,4.60
2017-11-20T22:32:10.199Z,4.60
2017-11-20T22:34:42.208Z,4.60
2017-11-20T22:37:10.479Z,4.60
2017-11-20T22:39:38.706Z,4.60
2017-11-20T22:45:28.084Z,4.60
2017-11-20T22:48:09.841Z,4.60
2017-11-20T22:54:09.888Z,4.60
2017-11-20T23:15:16.739Z,4.60
2017-11-20T23:20:56.685Z,4.60
2017-11-20T23:23:26.144Z,4.60
2017-11-20T23:25:55.279Z,4.60
2017-11-20T23:28:23.689Z,4.60
2017-11-20T23:30:51.939Z,4.60
2017-11-20T23:33:24.016Z,4.60
2017-11-20T23:45:04.088Z,4.60
2017-11-20T23:47:35.792Z,4.60
2017-11-20T23:53:56.746Z,4.60
2017-11-20T23:56:27.069Z,4.60
2017-11-20T23:58:55.258Z,4.60
